Map

Track Data

SID SEASON NUMBER BASIN SUBBASIN NAME ISO_TIME NATURE LAT LON WMO_WIND WMO_PRES WMO_AGENCY TRACK_TYPE DIST2LAND LANDFALL IFLAG USA_AGENCY USA_ATCF_ID USA_LAT USA_LON USA_RECORD USA_STATUS USA_WIND USA_PRES USA_SSHS USA_R34_NE USA_R34_SE USA_R34_SW USA_R34_NW USA_R50_NE USA_R50_SE USA_R50_SW USA_R50_NW USA_R64_NE USA_R64_SE USA_R64_SW USA_R64_NW USA_POCI USA_ROCI USA_RMW USA_EYE TOKYO_LAT TOKYO_LON TOKYO_GRADE TOKYO_WIND TOKYO_PRES TOKYO_R50_DIR TOKYO_R50_LONG TOKYO_R50_SHORT TOKYO_R30_DIR TOKYO_R30_LONG TOKYO_R30_SHORT TOKYO_LAND CMA_LAT CMA_LON CMA_CAT CMA_WIND CMA_PRES HKO_LAT HKO_LON HKO_CAT HKO_WIND HKO_PRES NEWDELHI_LAT NEWDELHI_LON NEWDELHI_GRADE NEWDELHI_WIND NEWDELHI_PRES NEWDELHI_CI NEWDELHI_DP NEWDELHI_POCI REUNION_LAT REUNION_LON REUNION_TYPE REUNION_WIND REUNION_PRES REUNION_TNUM REUNION_CI REUNION_RMW REUNION_R34_NE REUNION_R34_SE REUNION_R34_SW REUNION_R34_NW REUNION_R50_NE REUNION_R50_SE REUNION_R50_SW REUNION_R50_NW REUNION_R64_NE REUNION_R64_SE REUNION_R64_SW REUNION_R64_NW BOM_LAT BOM_LON BOM_TYPE BOM_WIND BOM_PRES BOM_TNUM BOM_CI BOM_RMW BOM_R34_NE BOM_R34_SE BOM_R34_SW BOM_R34_NW BOM_R50_NE BOM_R50_SE BOM_R50_SW BOM_R50_NW BOM_R64_NE BOM_R64_SE BOM_R64_SW BOM_R64_NW BOM_ROCI BOM_POCI BOM_EYE BOM_POS_METHOD BOM_PRES_METHOD NADI_LAT NADI_LON NADI_CAT NADI_WIND NADI_PRES WELLINGTON_LAT WELLINGTON_LON WELLINGTON_WIND WELLINGTON_PRES DS824_LAT DS824_LON DS824_STAGE DS824_WIND DS824_PRES TD9636_LAT TD9636_LON TD9636_STAGE TD9636_WIND TD9636_PRES TD9635_LAT TD9635_LON TD9635_WIND TD9635_PRES TD9635_ROCI NEUMANN_LAT NEUMANN_LON NEUMANN_CLASS NEUMANN_WIND NEUMANN_PRES MLC_LAT MLC_LON MLC_CLASS MLC_WIND MLC_PRES USA_GUST BOM_GUST BOM_GUST_PER REUNION_GUST REUNION_GUST_PER USA_SEAHGT USA_SEARAD_NE USA_SEARAD_SE USA_SEARAD_SW USA_SEARAD_NW STORM_SPEED STORM_DIR
1984291N13130 1984 99 WP MM WARREN 1984-10-17 00:00:00 NR 12.5000 130.100 main 497 497 __________O___ -1 12.5000 130.100 0 1 0
1984291N13130 1984 99 WP MM WARREN 1984-10-17 03:00:00 NR 12.4999 130.074 main 497 487 __________P___ -1 12.4999 130.074 0 1 270
1984291N13130 1984 99 WP MM WARREN 1984-10-17 06:00:00 NR 12.4998 130.044 main 487 487 __________P___ -1 12.4998 130.044 0 1 270
1984291N13130 1984 99 WP MM WARREN 1984-10-17 09:00:00 NR 12.4997 130.004 main 487 487 __________P___ -1 12.4997 130.004 0 1 270
1984291N13130 1984 99 WP MM WARREN 1984-10-17 12:00:00 NR 12.4997 129.950 main 487 477 __________P___ -1 12.4997 129.950 0 1 270
1984291N13130 1984 99 WP MM WARREN 1984-10-17 15:00:00 NR 12.4997 129.877 main 477 467 __________P___ -1 12.4997 129.877 0 2 270
1984291N13130 1984 99 WP MM WARREN 1984-10-17 18:00:00 NR 12.4998 129.781 main 467 456 __________P___ -1 12.4998 129.781 0 2 270
1984291N13130 1984 99 WP MM WARREN 1984-10-17 21:00:00 NR 12.4999 129.657 main 456 436 __________P___ -1 12.4999 129.657 0 3 270
1984291N13130 1984 99 WP MM WARREN 1984-10-18 00:00:00 NR 12.5000 129.500 main 436 422 __________O___ -1 12.5000 129.500 0 3 239
1984291N13130 1984 99 WP MM WARREN 1984-10-18 03:00:00 TS 12.3485 129.397 main 418 394 __________P___ -1 12.5000 129.308 0 4 228
1984291N13130 1984 99 WP MM WARREN 1984-10-18 06:00:00 TS 12.2334 129.192 main 394 363 __O_______P___ -1 11.7000 129.400 1 29 1000 12.5000 129.087 0 5 246
1984291N13130 1984 99 WP MM WARREN 1984-10-18 09:00:00 TS 12.1475 128.925 main 359 339 __P_______P___ -1 11.6901 129.030 1 26 1001 12.5000 128.848 0 5 256
1984291N13130 1984 99 WP MM WARREN 1984-10-18 12:00:00 TS 12.1000 128.650 main 339 309 __O_______O___ -1 11.7000 128.700 1 23 1003 12.5000 128.600 0 5 268
1984291N13130 1984 99 WP MM WARREN 1984-10-18 15:00:00 TS 12.1254 128.396 main 309 293 __P_______P___ -1 11.7549 128.435 1 23 1003 12.4959 128.357 0 5 281
1984291N13130 1984 99 WP MM WARREN 1984-10-18 18:00:00 TS 12.1962 128.154 main 293 261 __O_______P___ -1 11.9000 128.200 1 23 1003 12.4924 128.107 0 5 299
1984291N13130 1984 99 WP MM WARREN 1984-10-18 21:00:00 TS 12.3768 127.927 main 261 241 __P_______P___ -1 12.1651 127.955 1 23 1003 12.4928 127.854 0 6 301
1984291N13130 1984 99 WP MM WARREN 1984-10-19 00:00:00 TS 12.5000 127.633 main 230 198 __O_______O___ -1 12.5000 127.700 1 23 1003 12.5000 127.600 0 6 283
1984291N13130 1984 99 WP MM WARREN 1984-10-19 03:00:00 TS 12.5149 127.299 main 198 177 __________P___ -1 1 12.5218 127.354 0 5 276
1984291N13130 1984 99 WP MM WARREN 1984-10-19 06:00:00 NR 12.5499 127.108 main 177 158 __________P___ -1 12.5499 127.108 0 4 278
1984291N13130 1984 99 WP MM WARREN 1984-10-19 09:00:00 NR 12.5780 126.857 main 158 127 __________P___ -1 12.5780 126.857 0 5 276
1984291N13130 1984 99 WP MM WARREN 1984-10-19 12:00:00 NR 12.6000 126.600 main 127 107 __________O___ -1 12.6000 126.600 0 5 275
1984291N13130 1984 99 WP MM WARREN 1984-10-19 15:00:00 NR 12.6192 126.344 main 97 79 __________P___ -1 12.6192 126.344 0 5 273
1984291N13130 1984 99 WP MM WARREN 1984-10-19 18:00:00 NR 12.6298 126.080 main 79 55 __________P___ -1 12.6298 126.080 0 5 271
1984291N13130 1984 99 WP MM WARREN 1984-10-19 21:00:00 NR 12.6254 125.801 main 55 31 __________P___ -1 12.6254 125.801 0 6 267
1984291N13130 1984 99 WP MM WARREN 1984-10-20 00:00:00 NR 12.6000 125.500 main 31 11 __________O___ -1 12.6000 125.500 0 6 263
1984291N13130 1984 99 WP MM WARREN 1984-10-20 03:00:00 NR 12.5467 125.151 main 0 0 __________P___ -1 12.5467 125.151 0 7 260
1984291N13130 1984 99 WP MM WARREN 1984-10-20 06:00:00 NR 12.4727 124.785 main 10 0 __________P___ -1 12.4727 124.785 0 7 257
1984291N13130 1984 99 WP MM WARREN 1984-10-20 09:00:00 NR 12.3874 124.426 main 0 0 __________P___ -1 12.3874 124.426 0 7 256
1984291N13130 1984 99 WP MM WARREN 1984-10-20 12:00:00 NR 12.3000 124.100 main 22 10 __________O___ -1 12.3000 124.100 0 6 254
1984291N13130 1984 99 WP MM WARREN 1984-10-20 15:00:00 NR 12.2326 123.876 main 10 0 __________P___ -1 12.2326 123.876 0 4 252
1984291N13130 1984 99 WP MM WARREN 1984-10-20 18:00:00 NR 12.1643 123.680 main 0 0 __________P___ -1 12.1643 123.680 0 4 250
1984291N13130 1984 99 WP MM WARREN 1984-10-20 21:00:00 NR 12.0888 123.470 main 10 10 __________P___ -1 12.0888 123.470 0 5 251
1984291N13130 1984 99 WP MM WARREN 1984-10-21 00:00:00 NR 12.0000 123.200 main 15 15 __________O___ -1 12.0000 123.200 0 7 253
1984291N13130 1984 99 WP MM WARREN 1984-10-21 03:00:00 NR 11.8897 122.802 main 44 11 __________P___ -1 11.8897 122.802 0 9 254
1984291N13130 1984 99 WP MM WARREN 1984-10-21 06:00:00 NR 11.7654 122.345 main 10 0 __________P___ -1 11.7654 122.345 0 10 254
1984291N13130 1984 99 WP MM WARREN 1984-10-21 09:00:00 NR 11.6334 121.865 main 21 21 __________P___ -1 11.6334 121.865 0 10 254
1984291N13130 1984 99 WP MM WARREN 1984-10-21 12:00:00 NR 11.5000 121.400 main 55 55 __________O___ -1 11.5000 121.400 0 9 253
1984291N13130 1984 99 WP MM WARREN 1984-10-21 15:00:00 NR 11.3746 121.020 main 90 90 __________P___ -1 11.3746 121.020 0 8 251
1984291N13130 1984 99 WP MM WARREN 1984-10-21 18:00:00 NR 11.2494 120.658 main 120 77 __________P___ -1 11.2494 120.658 0 8 251
1984291N13130 1984 99 WP MM WARREN 1984-10-21 21:00:00 NR 11.1246 120.292 main 77 15 __________P___ -1 11.1246 120.292 0 10 267
1984291N13130 1984 99 WP MM WARREN 1984-10-22 00:00:00 TS 11.2000 119.620 main 10 0 __________O___ -1 11.0000 119.900 0 12 272
1984291N13130 1984 99 WP MM WARREN 1984-10-22 03:00:00 TS 11.1635 119.052 main 32 32 __________P___ -1 10.8303 119.457 0 10 265
1984291N13130 1984 99 WP MM WARREN 1984-10-22 06:00:00 TS 11.1099 118.564 main 79 79 __________P___ -1 10.6674 118.987 0 9 265
1984291N13130 1984 99 WP MM WARREN 1984-10-22 09:00:00 TS 11.0904 118.145 main 132 132 __________P___ -1 10.5458 118.498 0 8 265
1984291N13130 1984 99 WP MM WARREN 1984-10-22 12:00:00 TS 11.0500 117.800 main 156 148 __________O___ -1 10.5000 118.000 0 7 267
1984291N13130 1984 99 WP MM WARREN 1984-10-22 15:00:00 TS 11.0546 117.404 main 189 189 __________P___ -1 10.5593 117.415 0 8 274
1984291N13130 1984 99 WP MM WARREN 1984-10-22 18:00:00 TS 11.0979 117.018 main 226 226 __________P___ -1 10.6957 116.836 0 7 279
1984291N13130 1984 99 WP MM WARREN 1984-10-22 21:00:00 TS 11.1596 116.691 main 254 254 __________P___ -1 10.8842 116.340 0 6 290
1984291N13130 1984 99 WP MM WARREN 1984-10-23 00:00:00 TS 11.3100 116.410 1004 tokyo main 280 280 OO________O___ jtwc_wp WP261984 11.1000 116.000 25 -1 12.0000 116.500 2 1004 0 0 0 11.1000 116.000 1 25 5 315
1984291N13130 1984 99 WP MM WARREN 1984-10-23 03:00:00 TS 11.5177 116.324 main 305 305 PP________P___ WP261984 11.3600 116.107 25 -1 12.3000 116.500 2 1002 0 0 11.3030 115.925 1 26 4 347
1984291N13130 1984 99 WP MM WARREN 1984-10-23 06:00:00 TS 11.7139 116.315 1000 tokyo main 324 324 OO_O______P___ jtwc_wp WP261984 11.6000 116.200 25 -1 12.5000 116.500 2 1000 0 0 0 11.3000 116.200 TD 30 1002 11.5271 116.007 1 27 4 1
1984291N13130 1984 99 WP MM WARREN 1984-10-23 09:00:00 TS 11.8845 116.337 main 339 339 PP_P______P___ WP261984 11.8075 116.265 27 -1 12.5375 116.500 2 999 0 0 11.4900 116.210 TD 30 1002 11.7626 116.160 1 28 3 7
1984291N13130 1984 99 WP MM WARREN 1984-10-23 12:00:00 TS 12.0158 116.347 998 tokyo main 346 346 OO_O______O___ jtwc_wp WP261984 12.0000 116.300 30 -1 12.5000 116.500 2 998 0 0 0 11.7000 116.200 TD 30 1002 12.0000 116.300 1 30 3 357
1984291N13130 1984 99 WP MM WARREN 1984-10-23 15:00:00 TS 12.1582 116.327 main 355 355 PP_P______P___ WP261984 12.1925 116.315 32 -1 12.4625 116.500 2 998 0 0 11.9425 116.158 TD 30 1001 12.2087 116.320 1 31 3 353
1984291N13130 1984 99 WP MM WARREN 1984-10-23 18:00:00 TS 12.3440 116.302 998 tokyo main 359 359 OO_O______P___ jtwc_wp WP261984 12.4000 116.300 35 0 12.5000 116.500 2 998 0 0 0 12.2000 116.100 TD 30 1000 12.4200 116.310 1 32 4 352
1984291N13130 1984 99 WP MM WARREN 1984-10-23 21:00:00 TS 12.5727 116.270 main 372 372 PP_P______P___ WP261984 12.6275 116.258 35 0 12.7200 116.522 2 998 0 0 12.4275 116.050 TD 30 998 12.6462 116.270 1 33 5 351
1984291N13130 1984 99 WP MM WARREN 1984-10-24 00:00:00 TS 12.8400 116.220 998 tokyo main 391 391 OO_O______O___ jtwc_wp WP261984 12.9000 116.200 35 0 13.0000 116.500 2 998 0 0 0 12.7000 116.000 TD 30 996 12.9000 116.200 2 35 6 349
1984291N13130 1984 99 WP MM WARREN 1984-10-24 03:00:00 TS 13.1531 116.151 main 413 413 PP_P______P___ WP261984 13.2425 116.172 37 0 13.2225 116.395 2 997 0 0 13.0850 115.957 TD 32 994 13.2654 116.088 2 37 7 346
1984291N13130 1984 99 WP MM WARREN 1984-10-24 06:00:00 TS 13.4695 116.050 45 996 tokyo main 441 441 OO_O______P___ jtwc_wp WP261984 13.6000 116.100 40 0 13.4000 116.200 3 45 996 0 9 150 150 0 13.5000 115.900 TS 35 993 13.6476 115.951 2 40 6 338
1984291N13130 1984 99 WP MM WARREN 1984-10-24 09:00:00 TS 13.7482 115.898 main 469 466 PP_P______P___ WP261984 13.9525 115.923 42 0 13.4776 115.885 3 45 994 0 9 150 150 13.8800 115.778 TS 37 991 13.9810 115.813 2 42 6 331
1984291N13130 1984 99 WP MM WARREN 1984-10-24 12:00:00 TS 13.9800 115.760 45 992 tokyo main 468 468 OO_O______O___ jtwc_wp WP261984 14.2000 115.700 45 0 13.6000 115.600 3 45 992 0 9 150 150 0 14.2000 115.700 TS 40 990 14.2000 115.700 2 45 5 332
1984291N13130 1984 99 WP MM WARREN 1984-10-24 15:00:00 TS 14.1526 115.673 main 471 468 PP_P______P___ WP261984 14.2750 115.447 47 0 13.9349 115.453 3 45 991 0 9 150 150 14.4300 115.755 TS 40 989 14.1734 115.634 2 46 3 344
1984291N13130 1984 99 WP MM WARREN 1984-10-24 18:00:00 TS 14.2675 115.679 45 990 tokyo main 468 447 OO_O______P___ jtwc_wp WP261984 14.2000 115.300 50 0 14.3000 115.500 3 45 990 0 9 150 150 0 14.6000 115.900 TS 40 988 14.0374 115.597 2 47 3 43
1984291N13130 1984 99 WP MM WARREN 1984-10-24 21:00:00 TS 14.3481 115.864 main 447 433 PP_P______P___ WP261984 13.9700 115.390 50 0 14.5978 115.887 3 45 990 0 9 150 150 14.7876 116.152 TS 42 986 13.8828 115.587 2 48 3 71
1984291N13130 1984 99 WP MM WARREN 1984-10-25 00:00:00 TS 14.3800 116.020 45 990 tokyo main 433 433 OO_O______O___ jtwc_wp WP261984 13.8000 115.600 50 0 14.7000 116.200 3 45 990 0 9 150 150 0 14.9000 116.300 TS 45 985 13.8000 115.600 2 50 1 75
1984291N13130 1984 99 WP MM WARREN 1984-10-25 03:00:00 TS 14.3653 115.938 main 444 444 PP_P______P___ WP261984 13.9401 115.837 52 0 14.4226 115.967 3 50 985 0 9 175 175 14.8801 116.095 TS 47 984 13.9462 115.681 2 51 2 264
1984291N13130 1984 99 WP MM WARREN 1984-10-25 06:00:00 TS 14.3540 115.775 55 980 tokyo main 454 454 OO_O______P___ jtwc_wp WP261984 14.2000 116.000 55 0 14.1000 115.600 4 55 980 9 100 100 9 200 200 0 14.8000 115.800 STS 50 984 14.1699 115.775 2 52 3 285
1984291N13130 1984 99 WP MM WARREN 1984-10-25 09:00:00 TS 14.4312 115.679 main 465 460 PP_P______P___ WP261984 14.4299 115.975 55 0 14.0899 115.478 4 55 980 9 100 100 9 200 200 14.7499 115.685 STS 52 983 14.4086 115.831 2 53 3 308
1984291N13130 1984 99 WP MM WARREN 1984-10-25 12:00:00 TS 14.5200 115.560 55 980 tokyo main 470 470 OO_O______O___ jtwc_wp WP261984 14.6000 115.800 55 0 14.2000 115.400 4 55 980 9 100 100 9 200 200 0 14.7000 115.600 STS 55 983 14.6000 115.800 2 55 3 291
1984291N13130 1984 99 WP MM WARREN 1984-10-25 15:00:00 TS 14.5489 115.356 main 491 491 PP_P______P___ WP261984 14.6301 115.522 57 0 14.2925 115.265 4 55 980 9 100 100 9 200 200 14.6500 115.450 STS 55 982 14.6217 115.564 2 56 4 275
1984291N13130 1984 99 WP MM WARREN 1984-10-25 18:00:00 TS 14.5588 115.129 55 980 tokyo main 517 517 OO_O______P___ jtwc_wp WP261984 14.6000 115.200 60 0 14.4000 115.100 4 55 980 9 100 100 9 200 200 0 14.6000 115.300 STS 55 982 14.5938 115.246 2 57 4 272
1984291N13130 1984 99 WP MM WARREN 1984-10-25 21:00:00 TS 14.5653 114.924 main 538 538 PP_P______P___ WP261984 14.5775 114.912 60 0 14.5225 114.900 4 57 980 9 9 225 175 14.5425 115.193 STS 55 981 14.5689 114.931 2 58 4 273
1984291N13130 1984 99 WP MM WARREN 1984-10-26 00:00:00 TS 14.5800 114.760 60 980 tokyo main 548 548 OO_O______O___ jtwc_wp WP261984 14.6000 114.700 60 0 14.6000 114.700 4 60 980 9 7 250 150 0 14.5000 115.100 STS 55 980 14.6000 114.700 2 60 3 280
1984291N13130 1984 99 WP MM WARREN 1984-10-26 03:00:00 TS 14.6127 114.650 main 558 558 PP_P______P___ WP261984 14.7350 114.613 62 0 14.5575 114.527 4 60 980 9 7 275 175 14.4850 115.007 STS 55 981 14.7434 114.620 2 62 2 295
1984291N13130 1984 99 WP MM WARREN 1984-10-26 06:00:00 TS 14.6600 114.580 60 980 tokyo main 566 566 OO_O______O___ jtwc_wp WP261984 14.9000 114.600 65 1 14.5000 114.400 4 60 980 7 150 100 7 300 200 0 14.5000 114.900 STS 55 982 14.9000 114.600 3 65 2 314
1984291N13130 1984 99 WP MM WARREN 1984-10-26 09:00:00 TS 14.7261 114.525 main 567 567 PP_P______P___ WP261984 15.0225 114.592 65 1 14.5275 114.320 4 60 980 7 150 100 7 300 200 14.5350 114.743 STS 55 983 15.0179 114.592 3 65 2 329
1984291N13130 1984 99 WP MM WARREN 1984-10-26 12:00:00 TS 14.8000 114.500 60 980 tokyo main 569 569 OO_O______O___ jtwc_wp WP261984 15.1000 114.600 65 1 14.6000 114.300 4 60 980 7 150 100 7 300 200 0 14.6000 114.600 STS 55 984 15.1000 114.600 4 65 1 343
1984291N13130 1984 99 WP MM WARREN 1984-10-26 15:00:00 TS 14.8673 114.491 main 570 570 PP_P______P___ WP261984 15.1150 114.600 65 1 14.7075 114.335 4 60 980 7 150 100 7 300 200 14.6850 114.513 STS 55 984 15.1289 114.563 4 65 1 7
1984291N13130 1984 99 WP MM WARREN 1984-10-26 18:00:00 TS 14.9241 114.505 60 980 tokyo main 570 570 OO_O______P___ jtwc_wp WP261984 15.1000 114.600 65 1 14.8000 114.400 4 60 980 7 150 100 7 300 200 0 14.8000 114.500 STS 55 985 15.1203 114.525 4 65 1 30
1984291N13130 1984 99 WP MM WARREN 1984-10-26 21:00:00 TS 14.9438 114.520 main 570 558 PP_P______P___ WP261984 15.0850 114.570 65 1 14.7625 114.420 4 60 980 7 137 85 7 300 200 14.9425 114.555 STS 57 984 15.1015 114.525 4 65 1 50
1984291N13130 1984 99 WP MM WARREN 1984-10-27 00:00:00 TS 15.0000 114.600 60 980 tokyo main 558 532 OO_O______O___ jtwc_wp WP261984 15.1000 114.600 65 1 14.8000 114.500 4 60 980 4 125 70 4 300 200 0 15.1000 114.700 STS 60 984 15.1000 114.600 4 65 4 46
1984291N13130 1984 99 WP MM WARREN 1984-10-27 03:00:00 TS 15.1928 114.787 main 532 507 PP_P______P___ WP261984 15.1925 114.747 65 1 15.1725 114.720 4 60 980 4 125 70 4 300 200 15.2650 114.912 STS 60 983 15.1616 114.784 4 65 6 50
1984291N13130 1984 99 WP MM WARREN 1984-10-27 06:00:00 TS 15.3685 115.049 60 980 tokyo main 507 475 OO_O______P___ jtwc_wp WP261984 15.3000 115.000 65 1 15.5000 115.000 4 60 980 4 125 70 4 300 200 0 15.4000 115.200 STS 60 982 15.2426 115.045 4 65 6 71
1984291N13130 1984 99 WP MM WARREN 1984-10-27 09:00:00 TS 15.3809 115.344 main 475 444 PP_P______P___ WP261984 15.3575 115.328 65 1 15.4100 115.258 4 57 977 4 112 85 4 275 200 15.4800 115.542 STS 60 981 15.3272 115.359 4 65 6 93
1984291N13130 1984 99 WP MM WARREN 1984-10-27 12:00:00 TS 15.3400 115.660 55 975 tokyo main 435 414 OO_O______O___ jtwc_wp WP261984 15.4000 115.700 65 1 15.2000 115.500 4 55 975 9 100 100 4 250 200 0 15.5000 115.900 STS 60 980 15.4000 115.700 4 65 6 94
1984291N13130 1984 99 WP MM WARREN 1984-10-27 15:00:00 TS 15.3380 115.948 main 414 380 PP_P______P___ WP261984 15.4574 116.050 65 1 15.1198 115.663 4 57 975 9 100 100 4 250 225 15.4499 116.200 STS 60 977 15.4354 116.041 4 65 6 89
1984291N13130 1984 99 WP MM WARREN 1984-10-27 18:00:00 TS 15.3515 116.260 60 975 tokyo main 370 338 OO_O______P___ jtwc_wp WP261984 15.5000 116.400 65 1 15.1000 115.900 4 60 975 9 100 100 9 250 250 0 15.4000 116.500 STS 60 975 15.4577 116.400 4 65 7 87
1984291N13130 1984 99 WP MM WARREN 1984-10-27 21:00:00 TS 15.3732 116.628 main 338 296 PP_P______P___ WP261984 15.4999 116.750 65 1 15.1127 116.363 4 60 975 9 100 100 9 250 250 15.4350 116.850 STS 60 975 15.4761 116.760 4 65 7 85
1984291N13130 1984 99 WP MM WARREN 1984-10-28 00:00:00 TS 15.4200 117.020 60 975 tokyo main 296 252 OO_O______O___ jtwc_wp WP261984 15.5000 117.100 65 1 15.2000 116.900 4 60 975 9 100 100 9 250 250 0 15.5000 117.200 STS 60 975 15.5000 117.100 4 65 8 80
1984291N13130 1984 99 WP MM WARREN 1984-10-28 03:00:00 TS 15.5112 117.435 main 252 208 PP_P______P___ WP261984 15.5425 117.472 65 1 15.4001 117.402 4 60 977 9 100 100 9 250 250 15.5500 117.530 STS 60 975 15.5631 117.441 4 65 8 76
1984291N13130 1984 99 WP MM WARREN 1984-10-28 06:00:00 TS 15.6060 117.791 60 980 tokyo main 208 184 OO_O______P___ jtwc_wp WP261984 15.6000 117.800 65 1 15.6000 117.800 4 60 980 9 100 100 9 250 250 0 15.6000 117.800 STS 60 975 15.6301 117.755 4 65 6 74
1984291N13130 1984 99 WP MM WARREN 1984-10-28 09:00:00 TS 15.6713 118.014 main 184 174 PP_P______P___ WP261984 15.6724 118.037 65 1 15.6799 118.018 4 60 980 9 80 80 9 250 250 15.6499 117.965 STS 60 975 15.6819 118.016 4 65 3 74
1984291N13130 1984 99 WP MM WARREN 1984-10-28 12:00:00 TS 15.7000 118.140 60 980 tokyo main 174 163 OO_O______O___ jtwc_wp WP261984 15.7000 118.200 65 1 15.7000 118.100 4 60 980 9 60 60 9 250 250 0 15.7000 118.100 STS 60 975 15.7000 118.200 4 65 2 88
1984291N13130 1984 99 WP MM WARREN 1984-10-28 15:00:00 TS 15.6772 118.242 main 163 153 PP_P______P___ WP261984 15.6150 118.345 65 1 15.7000 118.123 4 60 980 9 60 60 9 250 250 15.7576 118.345 STS 57 977 15.6485 118.312 4 63 1 118
1984291N13130 1984 99 WP MM WARREN 1984-10-28 18:00:00 TS 15.6329 118.269 60 980 tokyo main 156 156 OO_O______P___ jtwc_wp WP261984 15.5000 118.400 65 1 15.7000 118.100 4 60 980 9 60 60 9 250 250 0 15.8000 118.500 STS 55 980 15.5646 118.343 4 62 1 0
1984291N13130 1984 99 WP MM WARREN 1984-10-28 21:00:00 TS 15.6077 118.219 main 166 166 PP_P______P___ WP261984 15.4350 118.345 62 0 15.7650 118.130 4 60 980 9 60 60 9 250 250 15.8225 118.410 STS 55 982 15.4735 118.302 4 61 2 252
1984291N13130 1984 99 WP MM WARREN 1984-10-29 00:00:00 TS 15.5800 118.100 60 980 tokyo main 177 177 OO_O______O___ jtwc_wp WP261984 15.4000 118.200 60 0 15.8000 118.100 4 60 980 9 60 60 9 250 250 0 15.8000 118.200 STS 55 984 15.4000 118.200 2 60 3 255
1984291N13130 1984 99 WP MM WARREN 1984-10-29 03:00:00 TS 15.5372 117.946 main 200 200 PP_P______P___ WP261984 15.3925 118.015 57 0 15.7150 117.937 4 60 980 9 60 60 9 250 250 15.7075 118.015 STS 55 984 15.3786 118.053 2 58 3 256
1984291N13130 1984 99 WP MM WARREN 1984-10-29 06:00:00 TS 15.4955 117.751 60 980 tokyo main 210 210 OO_O______P___ jtwc_wp WP261984 15.4000 117.800 55 0 15.6000 117.700 4 60 980 9 60 60 9 250 250 0 15.6000 117.800 STS 55 985 15.3777 117.853 2 57 4 261
1984291N13130 1984 99 WP MM WARREN 1984-10-29 09:00:00 TS 15.4731 117.535 main 242 242 PP_P______P___ WP261984 15.4000 117.600 55 0 15.5350 117.443 4 60 982 9 60 60 9 250 250 15.5350 117.543 STS 55 985 15.3879 117.625 2 56 4 265
1984291N13130 1984 99 WP MM WARREN 1984-10-29 12:00:00 TS 15.4600 117.320 60 985 tokyo main 262 262 OO_O______O___ jtwc_wp WP261984 15.4000 117.400 55 0 15.5000 117.200 4 60 985 9 60 60 9 250 250 0 15.5000 117.300 STS 55 985 15.4000 117.400 2 55 4 266
1984291N13130 1984 99 WP MM WARREN 1984-10-29 15:00:00 TS 15.4493 117.138 main 286 286 PP_P______P___ WP261984 15.4000 117.193 52 0 15.5000 117.028 4 60 985 9 60 60 9 250 250 15.4924 117.143 STS 55 986 15.4039 117.234 2 52 3 267
1984291N13130 1984 99 WP MM WARREN 1984-10-29 18:00:00 TS 15.4414 116.975 60 985 tokyo main 296 296 OO_O______P___ jtwc_wp WP261984 15.4000 117.000 50 0 15.5000 116.900 4 60 985 9 60 60 9 250 250 0 15.5000 117.000 STS 55 988 15.4072 117.073 2 50 3 266
1984291N13130 1984 99 WP MM WARREN 1984-10-29 21:00:00 TS 15.4314 116.837 main 317 317 PP_P______P___ WP261984 15.4000 116.850 47 0 15.4500 116.807 4 57 987 9 55 55 9 250 250 15.5075 116.823 STS 52 991 15.4070 116.900 2 47 3 266
1984291N13130 1984 99 WP MM WARREN 1984-10-30 00:00:00 TS 15.4200 116.680 55 990 tokyo main 328 328 OO_O______O___ jtwc_wp WP261984 15.4000 116.700 45 0 15.4000 116.700 4 55 990 9 50 50 9 250 250 0 15.5000 116.600 STS 50 994 15.4000 116.700 2 45 3 267
1984291N13130 1984 99 WP MM WARREN 1984-10-30 03:00:00 TS 15.4141 116.476 main 349 349 PP_P______P___ WP261984 15.4074 116.530 45 0 15.3998 116.560 4 52 993 9 9 250 250 15.4575 116.322 STS 50 994 15.3983 116.470 2 43 5 267
1984291N13130 1984 99 WP MM WARREN 1984-10-30 06:00:00 TS 15.3975 116.202 50 996 tokyo main 380 380 OO_O______P___ jtwc_wp WP261984 15.4000 116.300 45 0 15.4000 116.300 4 50 996 0 9 250 250 0 15.4000 116.000 STS 50 994 15.3873 116.210 2 42 6 265
1984291N13130 1984 99 WP MM WARREN 1984-10-30 09:00:00 TS 15.3651 115.833 main 422 422 PP_P______P___ WP261984 15.3725 115.980 42 0 15.3728 115.815 4 47 996 0 9 225 225 15.3575 115.643 STS 47 994 15.3576 115.920 2 41 7 262
1984291N13130 1984 99 WP MM WARREN 1984-10-30 12:00:00 TS 15.3000 115.440 45 996 tokyo main 467 467 OO_O______O___ jtwc_wp WP261984 15.3000 115.600 40 0 15.3000 115.300 3 45 996 0 9 200 200 0 15.3000 115.300 TS 45 995 15.3000 115.600 2 40 7 256
1984291N13130 1984 99 WP MM WARREN 1984-10-30 15:00:00 TS 15.1921 115.109 main 500 500 PP_P______P___ WP261984 15.1575 115.200 40 0 15.1648 114.963 3 45 996 0 9 200 200 15.1999 115.050 TS 45 995 15.2160 115.250 2 38 7 249
1984291N13130 1984 99 WP MM WARREN 1984-10-30 18:00:00 TS 15.0605 114.795 45 996 tokyo main 534 534 OO_O______P___ jtwc_wp WP261984 15.0000 114.800 40 0 15.0000 114.700 3 45 996 0 9 200 200 0 15.1000 114.800 TS 45 995 15.1026 114.872 2 37 7 248
1984291N13130 1984 99 WP MM WARREN 1984-10-30 21:00:00 TS 14.9385 114.473 main 570 537 PP_P______P___ WP261984 14.9074 114.443 37 0 14.8499 114.458 3 42 996 0 9 200 200 15.0649 114.480 TS 45 995 14.9629 114.484 2 36 7 248
1984291N13130 1984 99 WP MM WARREN 1984-10-31 00:00:00 TS 14.8000 114.140 40 996 tokyo main 527 491 OO_O______O___ jtwc_wp WP261984 14.8000 114.100 35 0 14.7000 114.200 3 40 996 0 9 200 200 0 15.0000 114.100 TS 45 995 14.8000 114.100 2 35 7 246
1984291N13130 1984 99 WP MM WARREN 1984-10-31 03:00:00 TS 14.6355 113.779 main 491 447 PP_P______P___ WP261984 14.6149 113.750 32 -1 14.5650 113.865 3 37 998 0 9 175 175 14.8376 113.642 TS 42 995 14.6173 113.739 2 33 8 243
1984291N13130 1984 99 WP MM WARREN 1984-10-31 06:00:00 TS 14.4430 113.417 35 1000 tokyo main 445 411 OO_O______P___ jtwc_wp WP261984 14.4000 113.400 30 -1 14.4000 113.500 3 35 1000 0 9 150 150 0 14.6000 113.200 TS 40 996 14.4148 113.385 2 32 8 239
1984291N13130 1984 99 WP MM WARREN 1984-10-31 09:00:00 TS 14.2209 113.079 main 411 377 PP_P______P___ WP261984 14.1999 113.050 30 -1 14.1576 113.120 3 1001 0 9 14.2999 112.878 TS 37 996 14.2049 113.039 2 31 8 235
1984291N13130 1984 99 WP MM WARREN 1984-10-31 12:00:00 TS 14.0000 112.760 1002 tokyo main 377 340 OO_O______O___ jtwc_wp WP261984 14.0000 112.700 30 -1 13.9000 112.800 2 1002 0 0 0 14.0000 112.600 TS 35 996 14.0000 112.700 1 30 7 235
1984291N13130 1984 99 WP MM WARREN 1984-10-31 15:00:00 TS 13.8024 112.468 main 340 305 PP_P______P___ WP261984 13.7925 112.343 27 -1 13.6622 112.673 2 1002 0 0 13.7625 112.285 TS 32 996 13.8099 112.368 1 28 7 238
1984291N13130 1984 99 WP MM WARREN 1984-10-31 18:00:00 TS 13.6473 112.175 1002 tokyo main 302 261 OO_O______P___ jtwc_wp WP261984 13.6000 112.000 25 -1 13.5000 112.500 2 1002 0 0 0 13.6000 112.000 TD 30 997 13.6328 112.042 1 27 7 248
1984291N13130 1984 99 WP MM WARREN 1984-10-31 21:00:00 TS 13.5522 111.826 main 261 226 PP_P______P___ WP261984 13.4424 111.693 25 -1 13.4703 112.015 2 1002 0 0 13.5199 111.785 TD 30 997 13.4644 111.720 1 26 7 260
1984291N13130 1984 99 WP MM WARREN 1984-11-01 00:00:00 TS 13.5250 111.475 1002 tokyo main 226 200 OO_O______O___ jtwc_wp WP261984 13.3000 111.400 25 -1 13.5000 111.500 2 1002 0 0 0 13.5000 111.600 TD 30 998 13.3000 111.400 1 25 6 272
1984291N13130 1984 99 WP MM WARREN 1984-11-01 03:00:00 TS 13.5752 111.197 main 200 170 PP_P__________ WP261984 13.1526 111.102 25 -1 13.5372 111.250 2 1002 0 0 13.4924 111.438 TD 30 999 1 6 279
1984291N13130 1984 99 WP MM WARREN 1984-11-01 06:00:00 TS 13.6154 110.892 1002 tokyo main 170 130 OO_O__________ jtwc_wp WP261984 13.0000 110.800 25 -1 13.5000 111.000 2 1002 0 0 0 13.5000 111.200 TD 30 1000 1 7 269
1984291N13130 1984 99 WP MM WARREN 1984-11-01 09:00:00 TS 13.5623 110.491 main 130 75 _P_P__________ WP261984 -1 13.2498 110.575 2 1002 0 0 13.4997 110.840 TD 30 1001 1 9 259
1984291N13130 1984 99 WP MM WARREN 1984-11-01 12:00:00 TS 13.4333 109.967 1002 tokyo main 75 10 _O_O__________ -1 13.0000 110.000 2 1002 0 0 0 13.5000 110.300 TD 30 1002 11 260
1984291N13130 1984 99 WP MM WARREN 1984-11-01 15:00:00 TS 13.3683 109.333 main 0 0 _P_P__________ -1 12.9626 109.288 2 1003 0 0 13.5076 109.560 TD 27 1003 13 265
1984291N13130 1984 99 WP MM WARREN 1984-11-01 18:00:00 TS 13.3182 108.591 1004 tokyo main 0 0 _O_O__________ -1 13.0000 108.500 2 1004 0 0 0 13.5000 108.700 TD 25 1004 15 266
1984291N13130 1984 99 WP MM WARREN 1984-11-01 21:00:00 TS 13.2740 107.803 main 0 0 _P_P__________ -1 13.0001 107.713 2 1004 0 0 13.4604 107.842 TD 25 1004 16 267
1984291N13130 1984 99 WP MM WARREN 1984-11-02 00:00:00 TS 13.2375 107.000 1004 tokyo main 0 0 _O_O__________ -1 13.0000 107.000 2 1004 0 0 0 13.4000 107.000 TD 25 1004 15 267
1984291N13130 1984 99 WP MM WARREN 1984-11-02 03:00:00 TS 13.2092 106.317 main 0 0 _P____________ -1 12.9997 106.463 2 1005 0 0 TD 12 268
1984291N13130 1984 99 WP MM WARREN 1984-11-02 06:00:00 TS 13.2000 105.750 1006 tokyo main 0 0 _O____________ -1 13.0000 106.000 2 1006 0 0 0 8 255
1984291N13130 1984 99 WP MM WARREN 1984-11-02 09:00:00 TS 13.0003 105.512 main 0 0 _P____________ -1 13.0003 105.512 2 1006 0 0 8 255
1984291N13130 1984 99 WP MM WARREN 1984-11-02 12:00:00 TS 13.0000 105.000 1006 tokyo main 0 _O____________ -1 13.0000 105.000 2 1006 0 0 0 10 270

Digital Typhoon Data and Search

About IBTrACS Database

This database is a web-friendly format of International Best Track Archive for Climate Stewardship (IBTrACS), a global best track data archive curated by NOAA dating back to 1842.

Updated: 2021-10-19